WetterOnline ( https://www.wetteronline.ch )

Wetter aktuell Görlitz

Aktuelles Wetter: Görlitz (240m)

6-stündlich | Neueste Meldungen
Ortszeit Temperatur Wetter
Mo, 17.02. 19:00 8.8° C bedeckt
Mo, 17.02. 13:00 10.4° C bedeckt
Mo, 17.02. 7:00 10.7° C leichter Regen
Mo, 17.02. 1:00 11.0° C bedeckt
So, 16.02. 19:00 11.3° C bewölkt
So, 16.02. 13:00 10.0° C bedeckt
So, 16.02. 7:00 7.0° C wolkig
So, 16.02. 1:00 6.2° C wolkig
Ortszeit Temperatur Wetter
Mo, 17.02. 22:30 6.9° C bedeckt
Mo, 17.02. 22:20 6.9° C bedeckt
Mo, 17.02. 22:10 6.9° C bedeckt
Mo, 17.02. 22:00 7.2° C bedeckt
Mo, 17.02. 21:50 7.2° C bedeckt
Mo, 17.02. 21:40 7.2° C bedeckt
Mo, 17.02. 21:30 6.9° C wolkig
Mo, 17.02. 21:00 8.2° C wolkig
Ortszeit Relative Feuchte Sichtweite
Mo, 17.02. 19:00 66% >70 km
Mo, 17.02. 13:00 63% >70 km
Mo, 17.02. 7:00 72% >70 km
Mo, 17.02. 1:00 49% 65 km
So, 16.02. 19:00 52% 55 km
So, 16.02. 13:00 52% >70 km
So, 16.02. 7:00 61% 55 km
So, 16.02. 1:00 71% 45 km
Ortszeit Relative Feuchte Sichtweite
Mo, 17.02. 22:30 79% >70 km
Mo, 17.02. 22:20 79% -
Mo, 17.02. 22:10 79% -
Mo, 17.02. 22:00 78% >70 km
Mo, 17.02. 21:50 78% -
Mo, 17.02. 21:40 78% -
Mo, 17.02. 21:30 78% >70 km
Mo, 17.02. 21:00 70% >70 km
Ortszeit Niederschlagsmenge Niederschlagsart
Mo, 17.02. 19:00 0.1 l/m2 in 12 Std. Regen
Mo, 17.02. 13:00 0.1 l/m2 in 6 Std. Regen
Mo, 17.02. 7:00 0.1 l/m2 in 12 Std. Regen
Mo, 17.02. 1:00 0.0 l/m2 in 6 Std. -
So, 16.02. 19:00 0.1 l/m2 in 12 Std. Regen
So, 16.02. 13:00 0.1 l/m2 in 6 Std. Regen
So, 16.02. 7:00 0.0 l/m2 in 12 Std. -
So, 16.02. 1:00 0.0 l/m2 in 6 Std. -
Ortszeit Niederschlagsmenge Niederschlagsart
Mo, 17.02. 22:30 0.0 l/m2 in 1 Std. -
Mo, 17.02. 22:20 keine Meldung -
Mo, 17.02. 22:10 keine Meldung -
Mo, 17.02. 22:00 0.0 l/m2 in 1 Std. -
Mo, 17.02. 21:50 keine Meldung -
Mo, 17.02. 21:40 keine Meldung -
Mo, 17.02. 21:30 0.0 l/m2 in 1 Std. -
Mo, 17.02. 21:00 0.0 l/m2 in 1 Std. -
Ortszeit Stärke Spitze Richtung
km/h Bft. km/h Grad Sektor
Mo, 17.02. 19:00 25 4 40 210° SW
Mo, 17.02. 13:00 14 3 43 240° SW
Mo, 17.02. 7:00 26 4 74 240° SW
Mo, 17.02. 1:00 52 7 83 190° S
So, 16.02. 19:00 36 5 76 190° S
So, 16.02. 13:00 43 6 68 190° S
So, 16.02. 7:00 31 5 61 180° S
So, 16.02. 1:00 37 5 59 190° S
Ortszeit Stärke Spitze Richtung
km/h Bft. km/h Grad Sektor
Mo, 17.02. 22:30 18 3 25 210° SW
Mo, 17.02. 22:20 18 3 - 210° SW
Mo, 17.02. 22:10 18 3 - 210° SW
Mo, 17.02. 22:00 20 4 28 220° SW
Mo, 17.02. 21:50 20 4 - 220° SW
Mo, 17.02. 21:40 14 3 - 220° SW
Mo, 17.02. 21:30 17 3 28 220° SW
Mo, 17.02. 21:00 22 4 39 240° SW
Ortszeit Untergrenze Bedeckung Gattung
total tief tief mittel hoch
Mo, 17.02. 19:00 1800 m 8/8 8/8 - - -
Mo, 17.02. 13:00 1800 m 8/8 8/8 - - -
Mo, 17.02. 7:00 1050 m 8/8 8/8 - - -
Mo, 17.02. 1:00 4800 m 8/8 8/8 - - -
So, 16.02. 19:00 6900 m 8/8 7/8 - - -
So, 16.02. 13:00 2400 m 8/8 8/8 - - -
So, 16.02. 7:00 4200 m 8/8 2/8 - - -
So, 16.02. 1:00 7500 m 8/8 0/8 - - -
Ortszeit Bedeckungsgrad in Achtel und Wolkenuntergrenze
Mo, 17.02. 22:30 6(3900m) 8(4500m) 8(5100m)
Mo, 17.02. 22:20 6(3900m) 8(4500m) 8(5100m)
Mo, 17.02. 22:10 7(3600m) 8(4200m) 8(5700m)
Mo, 17.02. 22:00 2(3600m) 8(4200m) 8(5400m)
Mo, 17.02. 21:50 2(3600m) 8(4200m) 8(5400m)
Mo, 17.02. 21:40 8(4200m) 8(5400m)
Mo, 17.02. 21:30 1(960m) 8(4200m) 8(5100m)
Mo, 17.02. 21:00 1(990m) 8(3900m) 8(5100m)
Ortszeit Luftdruck NN (hPa) Tendenz (hPa in 3 Std.)
Mo, 17.02. 19:00 1016 + 0,3
Mo, 17.02. 13:00 1016 - 0,4
Mo, 17.02. 7:00 1014 + 3,7
Mo, 17.02. 1:00 1009 + 0,3
So, 16.02. 19:00 1010 - 1,9
So, 16.02. 13:00 1014 - 1,7
So, 16.02. 7:00 1017 - 1,1
So, 16.02. 1:00 1019 - 0,7
Ortszeit Luftdruck NN (hPa) Tendenz (hPa in 3 Std.)
Mo, 17.02. 22:30 1017 + 0,4
Mo, 17.02. 22:20 1017 keine Meldung
Mo, 17.02. 22:10 1017 keine Meldung
Mo, 17.02. 22:00 1017 + 0,8
Mo, 17.02. 21:50 1017 keine Meldung
Mo, 17.02. 21:40 1017 keine Meldung
Mo, 17.02. 21:30 1017 + 1,0
Mo, 17.02. 21:00 1016 + 0,7
Ortszeit Schneehöhe (cm)
Mo, 17.02. 19:00 0
Mo, 17.02. 13:00 0
Mo, 17.02. 7:00 0
Mo, 17.02. 1:00 0
So, 16.02. 19:00 0
So, 16.02. 13:00 0
So, 16.02. 7:00 0
So, 16.02. 1:00 0
Ortszeit Schneehöhe (cm)
Mo, 17.02. 22:30 0
Mo, 17.02. 22:20 0
Mo, 17.02. 22:10 0
Mo, 17.02. 22:00 0
Mo, 17.02. 21:50 0
Mo, 17.02. 21:40 0
Mo, 17.02. 21:30 0
Mo, 17.02. 21:00 0
Link zu dieser Seite / Seite empfehlen

Das Wetter in ...